Time;durP1;ratioP1;P1;durP2;ratioP2;P2;SDS_P1;SDS_P2;PMS_P1;PMS_P2;Temp;Humidity;BMP_temperature;BMP_pressure;BME280_temperature;BME280_humidity;BME280_pressure;Samples;Min_cycle;Max_cycle;Signal;HPM_P1;HPM_P2
2023/06/13 00:00:23;;;;;;;1.98;1.35;;;;;;;18.23;41.39;101247.31;15511606;28;20185;-82
2023/06/13 00:07:56;;;;;;;0.95;0.77;;;;;;;17.96;42.32;101247.19;15504875;28;20665;-82
2023/06/13 00:15:31;;;;;;;;;;;;;;;17.69;43.64;101238.81;15508042;28;20043;-82
2023/06/13 00:23:04;;;;;;;1.38;0.77;;;;;;;17.32;44.53;101242.78;15506099;28;19929;-81
2023/06/13 00:30:38;;;;;;;1.67;0.80;;;;;;;17.22;44.25;101245.28;15542565;23;20387;-51
2023/06/13 00:38:12;;;;;;;3.22;0.93;;;;;;;17.17;44.49;101230.81;15548562;28;20042;-54
2023/06/13 00:45:46;;;;;;;0.88;0.68;;;;;;;17.28;43.91;101219.91;15548956;28;20054;-53
2023/06/13 00:53:21;;;;;;;0.60;0.60;;;;;;;17.13;44.47;101207.94;15530477;28;20132;-50
2023/06/13 01:01:03;;;;;;;2.05;1.08;;;;;;;17.19;44.53;101213.22;15547225;28;20037;-50
2023/06/13 01:08:37;;;;;;;2.47;1.23;;;;;;;17.31;44.06;101208.56;15546175;28;20042;-56
2023/06/13 01:16:21;;;;;;;1.77;0.90;;;;;;;17.31;44.74;101205.84;15545746;28;20042;-53
2023/06/13 01:24:07;;;;;;;1.55;1.00;;;;;;;17.37;44.63;101203.22;15545893;28;20057;-54
2023/06/13 01:31:43;;;;;;;2.08;0.90;;;;;;;17.27;44.53;101199.25;15542211;28;20057;-56
2023/06/13 01:39:16;;;;;;;2.00;0.88;;;;;;;17.27;44.65;101193.03;15543479;28;20142;-56
2023/06/13 01:46:59;;;;;;;1.97;1.17;;;;;;;17.12;45.06;101198.16;15536727;28;20054;-55
2023/06/13 01:54:36;;;;;;;2.47;0.83;;;;;;;17.06;44.98;101180.94;15544249;28;20053;-52
2023/06/13 02:02:13;;;;;;;3.22;1.35;;;;;;;16.96;45.35;101197.03;15543644;28;20112;-55
2023/06/13 02:09:46;;;;;;;2.05;1.13;;;;;;;16.63;45.94;101195.81;15540926;28;20042;-53
2023/06/13 02:17:21;;;;;;;1.67;1.23;;;;;;;16.57;46.20;101197.59;15542985;28;20037;-51
2023/06/13 02:24:55;;;;;;;4.30;1.10;;;;;;;16.51;46.10;101197.72;15541792;28;20060;-55
2023/06/13 02:32:29;;;;;;;2.07;1.03;;;;;;;16.40;46.49;101198.56;15542418;28;20160;-50
2023/06/13 02:40:04;;;;;;;4.22;1.40;;;;;;;16.31;46.92;101192.66;15541295;28;20050;-52
2023/06/13 02:47:38;;;;;;;2.08;1.17;;;;;;;16.19;47.19;101189.16;15541130;28;20058;-51
2023/06/13 02:55:11;;;;;;;1.90;1.25;;;;;;;15.96;47.85;101187.28;15562358;28;20178;-53
2023/06/13 03:02:47;;;;;;;7.67;6.80;;;;;;;15.89;48.41;101186.56;15556729;28;20046;-50
2023/06/13 03:10:20;;;;;;;3.60;1.42;;;;;;;15.90;47.98;101189.03;15524523;28;20112;-53
2023/06/13 03:17:56;;;;;;;;;;;;;;;15.93;48.12;101174.19;15534856;28;20034;-51
2023/06/13 03:25:31;;;;;;;1.85;1.25;;;;;;;15.77;48.94;101176.56;15544739;28;19921;-54
2023/06/13 03:33:05;;;;;;;4.75;4.50;;;;;;;15.63;49.30;101177.78;15531354;28;20108;-52
2023/06/13 03:40:41;;;;;;;3.00;2.83;;;;;;;15.75;48.96;101175.13;15550743;28;20049;-47
2023/06/13 03:48:16;;;;;;;52.17;48.65;;;;;;;15.66;49.12;101176.53;15546771;28;20042;-54
2023/06/13 03:55:50;;;;;;;179.30;166.63;;;;;;;15.73;49.33;101178.06;15550486;28;20054;-52
2023/06/13 04:03:29;;;;;;;57.80;54.15;;;;;;;15.84;48.99;101171.00;15551000;28;20527;-53
2023/06/13 04:11:02;;;;;;;307.50;280.23;;;;;;;15.77;49.75;101171.13;15551575;28;20073;-52
2023/06/13 04:18:39;;;;;;;125.13;116.68;;;;;;;15.93;49.24;101155.25;15549977;28;20092;-55
2023/06/13 04:26:12;;;;;;;180.32;167.30;;;;;;;15.98;49.60;101152.66;15565123;28;20132;-55
2023/06/13 04:33:46;;;;;;;12.73;11.90;;;;;;;16.20;48.96;101161.84;15540029;28;20451;-50
2023/06/13 04:41:33;;;;;;;272.42;247.15;;;;;;;16.15;50.21;101161.72;15548720;28;20067;-53
2023/06/13 04:49:08;;;;;;;193.27;178.45;;;;;;;16.23;49.64;101165.97;15541016;28;20118;-51
2023/06/13 04:56:41;;;;;;;269.60;244.38;;;;;;;16.50;50.21;101160.81;15539251;28;20054;-56
2023/06/13 05:04:15;;;;;;;2.05;1.23;;;;;;;16.96;48.52;101170.72;15545028;28;20046;-53
2023/06/13 05:11:48;;;;;;;2.15;0.82;;;;;;;16.95;48.42;101163.66;15547572;28;20092;-54
2023/06/13 05:19:23;;;;;;;2.08;1.20;;;;;;;17.50;47.52;101175.78;15545111;28;20054;-56
2023/06/13 05:26:56;;;;;;;1.52;0.90;;;;;;;17.36;47.34;101174.44;15544960;28;20107;-52
2023/06/13 05:34:31;;;;;;;3.97;1.43;;;;;;;18.24;45.59;101171.00;15541553;28;20145;-53
2023/06/13 05:42:05;;;;;;;2.80;1.67;;;;;;;18.31;45.65;101170.78;15544819;28;20518;-56
2023/06/13 05:49:39;;;;;;;2.53;1.17;;;;;;;18.88;44.66;101161.47;15543984;28;20145;-55
2023/06/13 05:57:12;;;;;;;3.97;1.30;;;;;;;19.34;42.38;101154.59;15545070;28;20038;-54
2023/06/13 06:04:46;;;;;;;3.33;1.33;;;;;;;19.62;43.01;101151.59;15543083;28;20049;-51
2023/06/13 06:12:21;;;;;;;2.45;1.63;;;;;;;20.31;42.08;101145.22;15543649;28;20132;-57
2023/06/13 06:19:56;;;;;;;1.40;0.95;;;;;;;20.21;41.43;101160.72;15524845;28;20049;-53
2023/06/13 06:27:28;;;;;;;1.83;1.20;;;;;;;20.85;40.55;101160.47;15541739;28;20475;-51
2023/06/13 06:35:04;;;;;;;3.90;1.00;;;;;;;21.41;39.54;101157.06;15541025;28;20136;-55
2023/06/13 06:42:37;;;;;;;3.83;1.45;;;;;;;21.70;39.68;101140.91;15540964;28;20133;-49
2023/06/13 06:50:17;;;;;;;2.63;1.35;;;;;;;21.96;37.87;101137.03;15538912;28;20050;-49
2023/06/13 06:57:53;;;;;;;3.85;1.80;;;;;;;22.29;36.04;101151.19;15544168;28;20465;-48
2023/06/13 07:05:27;;;;;;;9.45;1.75;;;;;;;22.44;33.70;101142.13;15553502;28;20076;-49
2023/06/13 07:13:00;;;;;;;3.33;1.55;;;;;;;23.18;32.81;101146.69;15553045;28;20148;-51
2023/06/13 07:20:35;;;;;;;4.72;1.20;;;;;;;23.36;32.04;101158.84;15551948;28;20081;-49
2023/06/13 07:28:08;;;;;;;8.20;1.60;;;;;;;25.56;29.29;101148.88;15551662;28;20445;-53
2023/06/13 07:35:43;;;;;;;3.20;1.42;;;;;;;24.32;29.33;101145.38;15542585;28;20049;-46
2023/06/13 07:43:17;;;;;;;3.72;1.48;;;;;;;22.91;31.50;101142.47;15547483;28;20062;-45
2023/06/13 07:50:51;;;;;;;1.67;1.17;;;;;;;22.98;32.10;101133.13;15544413;28;20137;-44
2023/06/13 07:58:25;;;;;;;2.35;1.27;;;;;;;24.24;30.19;101126.78;15549358;28;20092;-49
2023/06/13 08:05:59;;;;;;;2.17;1.13;;;;;;;24.36;27.73;101130.78;15543898;28;20054;-45
2023/06/13 08:13:31;;;;;;;2.25;1.33;;;;;;;24.80;27.81;101121.41;15547145;28;20046;-47
2023/06/13 08:21:06;;;;;;;2.03;1.10;;;;;;;24.76;27.58;101128.63;15546667;28;20499;-51
2023/06/13 08:28:41;;;;;;;1.60;0.90;;;;;;;25.26;26.65;101119.94;15553571;28;20073;-49
2023/06/13 08:36:22;;;;;;;2.53;1.27;;;;;;;25.48;26.47;101131.13;15548424;28;20633;-47
2023/06/13 08:43:58;;;;;;;3.83;1.00;;;;;;;25.31;27.27;101136.34;15548097;28;20046;-47
2023/06/13 08:51:33;;;;;;;3.30;1.48;;;;;;;25.77;28.11;101132.84;15542270;28;20045;-49
2023/06/13 08:59:08;;;;;;;4.55;1.38;;;;;;;26.21;24.71;101135.03;15547403;28;20060;-51
2023/06/13 09:06:45;;;;;;;2.45;1.08;;;;;;;24.85;26.69;101139.75;15541395;28;20046;-48
2023/06/13 09:14:19;;;;;;;1.73;0.85;;;;;;;25.24;24.93;101135.94;15547388;28;20374;-49
2023/06/13 09:21:53;;;;;;;2.33;1.00;;;;;;;25.91;24.94;101139.19;15547162;28;20544;-46
2023/06/13 09:30:07;;;;;;;1.38;0.95;;;;;;;26.05;24.56;101126.25;15528728;28;20049;-48
2023/06/13 09:37:42;;;;;;;2.75;1.00;;;;;;;25.85;24.80;101132.16;15535870;28;20475;-51
2023/06/13 09:45:16;;;;;;;6.18;1.20;;;;;;;26.06;25.25;101143.56;15544139;28;20122;-51
2023/06/13 09:52:50;;;;;;;1.55;1.00;;;;;;;26.10;26.51;101131.66;15543272;28;20403;-46
2023/06/13 10:00:23;;;;;;;2.72;1.50;;;;;;;26.43;25.80;101110.38;15541449;28;20062;-48
2023/06/13 10:07:58;;;;;;;2.35;1.30;;;;;;;27.12;25.41;101132.25;15547820;28;20344;-52
2023/06/13 10:15:35;;;;;;;2.20;1.20;;;;;;;27.12;24.95;101117.66;15556038;28;20125;-53
2023/06/13 10:23:14;;;;;;;2.75;1.13;;;;;;;27.69;24.24;101109.59;15543793;28;20042;-57
2023/06/13 10:31:01;;;;;;;7.28;1.27;;;;;;;28.17;20.28;101103.34;15542082;28;20046;-51
2023/06/13 10:38:59;;;;;;;8.65;1.08;;;;;;;28.69;19.52;101097.97;15542989;28;20155;-53
2023/06/13 10:46:34;;;;;;;0.80;0.60;;;;;;;28.72;19.29;101097.28;15542855;28;20057;-46
2023/06/13 10:54:11;;;;;;;1.90;0.68;;;;;;;28.84;20.24;101102.19;15525672;28;20541;-46
2023/06/13 11:01:45;;;;;;;2.10;1.00;;;;;;;29.45;21.61;101112.06;15518828;28;20475;-47
2023/06/13 11:09:21;;;;;;;1.83;0.95;;;;;;;28.50;22.10;101094.69;15542691;28;20057;-51
2023/06/13 11:16:55;;;;;;;3.92;0.90;;;;;;;26.76;23.67;101092.84;15541498;28;20419;-51
2023/06/13 11:24:30;;;;;;;5.32;1.10;;;;;;;25.78;24.56;101079.47;15536346;28;20046;-46
2023/06/13 11:32:06;;;;;;;2.97;0.70;;;;;;;24.69;25.22;101084.25;15541806;28;20058;-48
2023/06/13 11:39:42;;;;;;;1.10;0.47;;;;;;;24.38;23.85;101089.34;15516191;28;20372;-46
2023/06/13 11:47:15;;;;;;;2.92;1.02;;;;;;;26.03;21.97;101084.50;15546504;28;20069;-50
2023/06/13 11:54:50;;;;;;;2.75;0.85;;;;;;;27.37;20.24;101081.22;15549343;28;20150;-45
2023/06/13 12:02:25;;;;;;;2.28;0.73;;;;;;;28.11;20.38;101082.53;15551891;28;20525;-48
2023/06/13 12:09:59;;;;;;;8.98;1.02;;;;;;;27.58;20.33;101080.66;15532497;28;20068;-53
2023/06/13 12:17:32;;;;;;;5.53;1.00;;;;;;;29.54;19.54;101061.44;15548457;28;20057;-47
2023/06/13 12:25:07;;;;;;;3.40;0.73;;;;;;;28.06;22.61;101063.38;15551130;28;20057;-50
2023/06/13 12:32:44;;;;;;;2.47;1.02;;;;;;;28.85;21.77;101056.81;15532247;28;20115;-48
2023/06/13 12:40:18;;;;;;;3.35;1.13;;;;;;;27.72;21.18;101048.31;15587827;23;20051;-73
2023/06/13 12:47:54;;;;;;;1.48;0.70;;;;;;;26.85;23.81;101044.16;15610120;28;20525;-76
2023/06/13 12:55:29;;;;;;;5.38;1.45;;;;;;;25.72;24.68;101037.47;15608966;28;20124;-74
2023/06/13 13:03:02;;;;;;;3.42;1.25;;;;;;;25.57;24.58;101033.09;15607356;28;20521;-75
2023/06/13 13:10:38;;;;;;;2.45;0.82;;;;;;;25.87;24.16;101026.19;15605990;28;20053;-75
2023/06/13 13:18:11;;;;;;;2.78;0.98;;;;;;;26.42;23.53;101020.63;15605556;28;20088;-74
2023/06/13 13:25:45;;;;;;;0.60;0.50;;;;;;;25.87;23.72;101020.69;15607011;28;20045;-75
2023/06/13 13:33:22;;;;;;;3.05;0.80;;;;;;;24.98;24.80;101023.66;15605380;28;20204;-76
2023/06/13 13:40:56;;;;;;;2.08;0.80;;;;;;;25.48;25.03;101010.19;15603193;28;20041;-75
2023/06/13 13:48:29;;;;;;;0.95;0.60;;;;;;;25.43;25.38;101018.53;15599617;28;20370;-76
2023/06/13 13:56:03;;;;;;;4.57;1.00;;;;;;;24.50;27.15;101029.34;15598136;28;20053;-74
2023/06/13 14:03:37;;;;;;;3.25;0.93;;;;;;;24.45;27.83;101023.13;15606295;28;20052;-76
2023/06/13 14:11:13;;;;;;;6.85;1.02;;;;;;;23.80;28.11;101018.19;15605297;28;20055;-75
2023/06/13 14:18:47;;;;;;;1.60;1.05;;;;;;;23.81;28.84;101030.78;15606122;28;20536;-76
2023/06/13 14:26:22;;;;;;;0.75;0.60;;;;;;;23.66;28.77;101029.84;15595366;28;20710;-76
2023/06/13 14:33:55;;;;;;;2.03;0.93;;;;;;;23.97;28.72;101024.00;15605667;28;20046;-75
2023/06/13 14:41:30;;;;;;;3.13;0.75;;;;;;;23.95;28.47;101030.88;15608443;28;20111;-74
2023/06/13 14:49:02;;;;;;;1.10;0.52;;;;;;;23.06;29.60;101036.69;15591907;28;20057;-76
2023/06/13 14:56:37;;;;;;;1.30;0.85;;;;;;;22.81;29.83;101033.03;15587101;28;20478;-75
2023/06/13 15:04:10;;;;;;;1.02;0.57;;;;;;;23.32;30.15;101034.56;15601980;28;20050;-73
2023/06/13 15:11:45;;;;;;;1.17;0.65;;;;;;;23.66;29.26;101031.75;15604250;28;20058;-76
2023/06/13 15:19:18;;;;;;;4.28;1.08;;;;;;;22.79;29.76;101027.00;15594313;28;20133;-75
2023/06/13 15:26:53;;;;;;;1.00;0.70;;;;;;;22.34;31.39;101018.00;15610535;28;20056;-74
2023/06/13 15:34:27;;;;;;;1.77;0.93;;;;;;;22.60;31.15;101021.38;15617229;28;20057;-74
2023/06/13 15:42:01;;;;;;;1.15;0.60;;;;;;;23.12;29.58;101021.84;15607308;23;20075;-52
2023/06/13 15:49:34;;;;;;;4.25;1.05;;;;;;;23.07;29.45;101016.41;15531460;28;20041;-50
2023/06/13 15:57:08;;;;;;;1.60;0.82;;;;;;;23.08;29.46;101020.78;15557485;23;20045;-51
2023/06/13 16:04:41;;;;;;;1.75;1.05;;;;;;;22.25;31.38;101054.44;15563297;28;20457;-52
2023/06/13 16:12:16;;;;;;;1.02;0.70;;;;;;;22.11;31.41;101043.25;15568429;28;20463;-52
2023/06/13 16:19:48;;;;;;;1.92;0.77;;;;;;;22.58;31.09;101037.28;15563782;28;20410;-56
2023/06/13 16:27:22;;;;;;;;;;;;;;;22.55;31.18;101034.28;15561721;28;20076;-50
2023/06/13 16:34:55;;;;;;;0.85;0.50;;;;;;;22.40;31.44;101044.22;15567728;28;19924;-54
2023/06/13 16:42:29;;;;;;;0.95;0.60;;;;;;;22.28;31.52;101060.13;15564029;28;20046;-53
2023/06/13 16:50:03;;;;;;;1.75;0.75;;;;;;;21.85;32.28;101061.63;15564051;28;20041;-53
2023/06/13 16:57:37;;;;;;;2.25;0.60;;;;;;;21.52;32.91;101083.00;15558794;28;20477;-51
2023/06/13 17:05:10;;;;;;;0.80;0.50;;;;;;;21.85;33.07;101081.59;15560953;28;20132;-54
2023/06/13 17:12:44;;;;;;;0.93;0.50;;;;;;;21.50;33.51;101089.88;15560078;28;20133;-52
2023/06/13 17:20:18;;;;;;;2.05;0.50;;;;;;;21.20;34.19;101085.19;15556571;28;20468;-53
2023/06/13 17:27:52;;;;;;;3.35;0.32;;;;;;;21.19;34.66;101098.03;15568929;28;20064;-51
2023/06/13 17:35:25;;;;;;;1.98;0.80;;;;;;;20.93;35.14;101105.34;15561466;28;20112;-55
2023/06/13 17:43:09;;;;;;;0.60;0.40;;;;;;;20.99;35.11;101115.19;15553580;28;20562;-53
2023/06/13 17:50:42;;;;;;;0.65;0.35;;;;;;;20.93;35.00;101107.25;15556629;28;20065;-50
2023/06/13 17:58:16;;;;;;;;;;;;;;;20.60;35.80;101110.19;15555928;28;20297;-52
2023/06/13 18:05:49;;;;;;;0.77;0.45;;;;;;;20.74;35.98;101118.69;15552809;28;20275;-54
2023/06/13 18:13:23;;;;;;;1.27;0.40;;;;;;;20.15;36.99;101120.88;15551595;28;20268;-51
2023/06/13 18:20:56;;;;;;;1.13;0.50;;;;;;;19.72;37.47;101120.88;15552412;28;20049;-52
2023/06/13 18:28:30;;;;;;;0.75;0.35;;;;;;;19.68;38.29;101129.84;15563831;28;20410;-52
2023/06/13 18:36:04;;;;;;;0.88;0.40;;;;;;;19.79;38.59;101134.28;15547067;28;20323;-52
2023/06/13 18:43:38;;;;;;;0.60;0.35;;;;;;;19.81;38.04;101141.09;15560871;28;20038;-51
2023/06/13 18:51:11;;;;;;;0.35;0.20;;;;;;;19.70;38.34;101146.75;15553962;28;20533;-55
2023/06/13 18:58:45;;;;;;;5.07;0.30;;;;;;;19.37;39.48;101138.56;15576369;28;20503;-49
2023/06/13 19:06:18;;;;;;;0.20;0.20;;;;;;;19.48;39.32;101146.81;15572955;28;20420;-50
2023/06/13 19:13:53;;;;;;;;;;;;;;;19.24;40.36;101168.91;15572519;28;20053;-51
2023/06/13 19:21:26;;;;;;;0.55;0.20;;;;;;;18.87;41.14;101168.81;15581196;28;20017;-52
2023/06/13 19:29:00;;;;;;;0.80;0.30;;;;;;;18.55;42.23;101193.13;15572045;28;20041;-54
2023/06/13 19:36:33;;;;;;;3.22;0.65;;;;;;;18.65;41.88;101189.72;15577109;28;20072;-53
2023/06/13 19:44:08;;;;;;;0.10;0.10;;;;;;;18.22;42.90;101200.28;15579738;28;20052;-53
2023/06/13 19:51:41;;;;;;;0.57;0.40;;;;;;;18.22;43.38;101207.63;15573097;28;20030;-50
2023/06/13 19:59:15;;;;;;;0.73;0.40;;;;;;;18.06;43.92;101212.84;15573863;28;20038;-51
2023/06/13 20:06:48;;;;;;;0.93;0.45;;;;;;;17.84;44.73;101215.47;15565722;28;20057;-50
2023/06/13 20:14:22;;;;;;;1.13;0.63;;;;;;;17.73;44.81;101231.81;15560591;28;20455;-52
2023/06/13 20:21:55;;;;;;;0.85;0.50;;;;;;;17.64;44.86;101236.84;15567002;28;20045;-53
2023/06/13 20:29:30;;;;;;;0.50;0.50;;;;;;;17.76;45.06;101237.59;15572041;28;20315;-50
2023/06/13 20:37:03;;;;;;;0.95;0.40;;;;;;;17.61;45.24;101250.88;15562483;28;20409;-52
2023/06/13 20:44:38;;;;;;;6.07;0.43;;;;;;;17.35;45.79;101244.19;15567621;28;20074;-55
2023/06/13 20:52:11;;;;;;;1.55;0.73;;;;;;;17.14;46.57;101272.78;15559130;28;20359;-51
2023/06/13 20:59:45;;;;;;;0.68;0.40;;;;;;;16.66;47.65;101279.34;15553542;28;20266;-52
2023/06/13 21:07:19;;;;;;;1.25;0.55;;;;;;;17.37;46.20;101290.88;15545667;28;20133;-50
2023/06/13 21:14:53;;;;;;;0.52;0.40;;;;;;;16.96;47.11;101290.06;15553609;28;20044;-52
2023/06/13 21:22:26;;;;;;;0.93;0.50;;;;;;;16.53;48.11;101302.09;15562279;28;20511;-55
2023/06/13 21:30:00;;;;;;;;;;;;;;;16.15;49.24;101304.44;15569164;28;20076;-52
2023/06/13 21:37:35;;;;;;;0.60;0.30;;;;;;;15.84;50.08;101306.34;15560591;28;19925;-54
2023/06/13 21:45:11;;;;;;;0.68;0.63;;;;;;;15.80;50.34;101316.00;15561128;28;20487;-52
2023/06/13 21:52:43;;;;;;;0.85;0.57;;;;;;;15.67;50.48;101318.91;15561980;23;20053;-51
2023/06/13 22:00:22;;;;;;;2.07;0.70;;;;;;;15.71;50.92;101323.63;15557020;28;20049;-54
2023/06/13 22:08:14;;;;;;;1.45;0.75;;;;;;;15.46;51.59;101318.31;15590431;28;20045;-49
2023/06/13 22:15:52;;;;;;;1.77;1.73;;;;;;;15.43;52.19;101316.06;15612022;28;20049;-49
2023/06/13 22:23:25;;;;;;;23.33;21.83;;;;;;;15.48;51.87;101316.22;15620421;28;20041;-48
2023/06/13 22:31:01;;;;;;;127.97;118.95;;;;;;;15.36;52.44;101320.75;15623224;28;20182;-49
2023/06/13 22:38:33;;;;;;;260.52;238.60;;;;;;;14.87;53.77;101329.84;15617691;28;20091;-49
2023/06/13 22:46:07;;;;;;;546.77;448.20;;;;;;;15.14;53.38;101328.50;15621073;28;20154;-48
2023/06/13 22:53:40;;;;;;;717.72;519.40;;;;;;;14.98;53.69;101329.94;15588704;28;20095;-48
2023/06/13 23:01:14;;;;;;;828.97;593.33;;;;;;;14.41;55.25;101331.94;15612490;28;20502;-50
2023/06/13 23:08:47;;;;;;;746.00;577.40;;;;;;;15.15;53.60;101340.94;15612703;28;20099;-48
2023/06/13 23:16:21;;;;;;;713.87;563.53;;;;;;;14.68;54.49;101332.50;15611483;28;20061;-49
2023/06/13 23:23:55;;;;;;;710.85;625.70;;;;;;;14.50;55.44;101327.06;15617879;28;20095;-49
2023/06/13 23:31:31;;;;;;;708.47;622.07;;;;;;;14.17;56.79;101333.53;15600734;28;20069;-49
2023/06/13 23:39:05;;;;;;;718.60;632.28;;;;;;;14.35;56.40;101340.06;15603183;28;20357;-53
2023/06/13 23:46:40;;;;;;;725.60;648.75;;;;;;;14.35;56.51;101346.28;15624516;28;20080;-49
2023/06/13 23:54:14;;;;;;;691.97;625.67;;;;;;;14.45;56.96;101352.00;15626741;28;20053;-48
